createdAt,value
2023-03-10T00:02:22.245Z,95975.72
2023-03-10T00:07:25.151Z,95976.34
2023-03-10T00:12:28.060Z,95964.69
2023-03-10T00:17:32.661Z,95966.03
2023-03-10T00:22:35.869Z,95955.00
2023-03-10T00:27:38.724Z,95941.31
2023-03-10T00:32:42.914Z,95922.78
2023-03-10T00:37:45.691Z,95938.75
2023-03-10T00:42:50.792Z,95933.47
2023-03-10T00:47:54.947Z,95923.41
2023-03-10T00:52:57.725Z,95938.03
2023-03-10T00:58:00.606Z,95933.19
2023-03-10T01:03:04.839Z,95917.56
2023-03-10T01:08:07.593Z,95921.31
2023-03-10T01:13:11.219Z,95921.31
2023-03-10T01:18:16.492Z,95909.25
2023-03-10T01:23:21.950Z,95909.16
2023-03-10T01:28:26.028Z,95907.91
2023-03-10T01:33:30.271Z,95893.84
2023-03-10T01:38:34.100Z,95873.66
2023-03-10T01:43:37.974Z,95878.94
2023-03-10T01:48:42.302Z,95866.00
2023-03-10T01:53:45.877Z,95866.19
2023-03-10T01:58:49.377Z,95859.59
2023-03-10T02:03:58.156Z,95862.88
2023-03-10T02:09:03.541Z,95857.94
2023-03-10T02:14:06.893Z,95845.84
2023-03-10T02:19:24.042Z,95854.44
2023-03-10T02:24:32.673Z,95861.63
2023-03-10T02:29:52.406Z,95859.59
2023-03-10T02:35:02.059Z,95869.47
2023-03-10T02:40:33.873Z,95866.19
2023-03-10T02:45:45.690Z,95859.03
2023-03-10T02:50:49.078Z,95852.88
2023-03-10T02:55:52.640Z,95853.06
2023-03-10T03:00:57.671Z,95846.09
2023-03-10T03:06:01.248Z,95843.25
2023-03-10T03:11:05.095Z,95846.72
2023-03-10T03:16:10.268Z,95832.81
2023-03-10T03:21:17.345Z,95824.78
2023-03-10T03:26:22.574Z,95834.53
2023-03-10T03:31:29.588Z,95832.41
2023-03-10T03:36:41.317Z,95837.47
2023-03-10T03:41:46.324Z,95833.81
2023-03-10T03:46:50.691Z,95831.16
2023-03-10T03:51:53.948Z,95830.69
2023-03-10T03:56:59.529Z,95824.19
2023-03-10T04:02:05.009Z,95828.28
2023-03-10T04:07:07.953Z,95826.19
2023-03-10T04:12:11.364Z,95815.63
2023-03-10T04:17:18.686Z,95807.22
2023-03-10T04:22:22.545Z,95808.22
2023-03-10T04:27:26.196Z,95810.44
2023-03-10T04:32:32.403Z,95808.59
2023-03-10T04:37:35.995Z,95804.47
2023-03-10T04:42:39.636Z,95803.72
2023-03-10T04:47:45.016Z,95796.34
2023-03-10T04:52:49.959Z,95792.03
2023-03-10T04:57:55.020Z,95789.38
2023-03-10T05:02:59.329Z,95783.22
2023-03-10T05:08:02.369Z,95779.94
2023-03-10T05:13:06.444Z,95777.44
2023-03-10T05:18:12.165Z,95769.69
2023-03-10T05:23:15.624Z,95761.88
2023-03-10T05:28:18.620Z,95758.22
2023-03-10T05:33:22.856Z,95756.13
2023-03-10T05:38:27.067Z,95737.66
2023-03-10T05:43:30.273Z,95744.25
2023-03-10T05:48:35.090Z,95743.41
2023-03-10T05:53:38.930Z,95747.72
2023-03-10T05:58:45.328Z,95744.41
2023-03-10T06:03:51.675Z,95734.81
2023-03-10T06:08:55.048Z,95732.41
2023-03-10T06:13:57.985Z,95741.25
2023-03-10T06:19:02.202Z,95742.28
2023-03-10T06:24:05.100Z,95752.25
2023-03-10T06:29:10.141Z,95743.88
2023-03-10T06:34:14.487Z,95748.53
2023-03-10T06:39:38.915Z,95752.66
2023-03-10T06:44:41.892Z,95749.44
2023-03-10T06:49:45.968Z,95753.75
2023-03-10T06:54:49.162Z,95755.38
2023-03-10T06:59:52.772Z,95754.53
2023-03-10T07:04:58.182Z,95749.06
2023-03-10T07:10:02.562Z,95757.59
2023-03-10T07:15:08.007Z,95760.25
2023-03-10T07:20:14.165Z,95756.94
2023-03-10T07:25:17.134Z,95760.25
2023-03-10T07:30:23.205Z,95768.03
2023-03-10T07:35:28.670Z,95770.94
2023-03-10T07:40:31.854Z,95761.28
2023-03-10T07:45:36.380Z,95755.34
2023-03-10T07:50:41.262Z,95761.66
2023-03-10T07:55:44.864Z,95751.66
2023-03-10T08:00:49.653Z,95752.41
2023-03-10T08:05:54.283Z,95768.09
2023-03-10T08:11:06.202Z,95759.38
2023-03-10T08:16:09.758Z,95771.28
2023-03-10T08:21:14.228Z,95758.75
2023-03-10T08:26:19.085Z,95758.34
2023-03-10T08:31:23.292Z,95759.53
2023-03-10T08:36:30.503Z,95767.28
2023-03-10T08:41:36.410Z,95777.84
2023-03-10T08:46:40.284Z,95782.31
2023-03-10T08:51:45.246Z,95779.00
2023-03-10T08:56:49.106Z,95771.22
2023-03-10T09:01:52.033Z,95773.78
2023-03-10T09:06:56.350Z,95776.97
2023-03-10T09:11:59.157Z,95785.25
2023-03-10T09:17:01.990Z,95780.41
2023-03-10T09:22:06.344Z,95777.88
2023-03-10T09:27:09.040Z,95780.22
2023-03-10T09:32:15.530Z,95785.66
2023-03-10T09:37:19.893Z,95788.56
2023-03-10T09:42:42.079Z,95793.66
2023-03-10T09:47:54.706Z,95788.09
2023-03-10T09:53:07.256Z,95794.78
2023-03-10T09:58:16.434Z,95787.13
2023-03-10T10:03:23.443Z,95782.59
2023-03-10T10:08:30.312Z,95788.78
2023-03-10T10:13:35.945Z,95798.09
2023-03-10T10:18:42.818Z,95796.28
2023-03-10T10:23:51.178Z,95800.50
2023-03-10T10:28:56.587Z,95797.97
2023-03-10T10:34:01.271Z,95797.81
2023-03-10T10:39:27.553Z,95797.34
2023-03-10T10:44:30.932Z,95801.69
2023-03-10T10:49:37.401Z,95802.31
2023-03-10T10:54:44.440Z,95799.50
2023-03-10T10:59:47.400Z,95803.19
2023-03-10T11:04:51.436Z,95801.75
2023-03-10T11:09:57.901Z,95807.06
2023-03-10T11:15:12.691Z,95795.25
2023-03-10T11:20:26.334Z,95802.63
2023-03-10T11:25:37.865Z,95792.75
2023-03-10T11:30:48.705Z,95778.78
2023-03-10T11:35:55.217Z,95783.53
2023-03-10T11:41:05.409Z,95786.75
2023-03-10T11:46:16.551Z,95776.50
2023-03-10T11:51:31.419Z,95780.84
2023-03-10T11:56:40.822Z,95776.28
2023-03-10T12:01:48.380Z,95778.66
2023-03-10T12:06:58.526Z,95775.81
2023-03-10T12:12:05.454Z,95762.25
2023-03-10T12:17:13.412Z,95760.13
2023-03-10T12:22:26.265Z,95766.53
2023-03-10T12:27:30.590Z,95759.09
2023-03-10T12:32:47.485Z,95755.00
2023-03-10T12:37:50.364Z,95748.50
2023-03-10T12:42:56.227Z,95749.00
2023-03-10T12:48:09.168Z,95748.03
2023-03-10T12:53:32.611Z,95749.47
2023-03-10T12:58:38.662Z,95739.66
2023-03-10T13:03:47.267Z,95749.19
2023-03-10T13:08:53.388Z,95730.97
2023-03-10T13:14:03.175Z,95724.13
2023-03-10T13:19:06.603Z,95710.59
2023-03-10T13:24:24.075Z,95697.28
2023-03-10T13:29:28.465Z,95697.56
2023-03-10T13:34:34.160Z,95701.59
2023-03-10T13:39:37.534Z,95706.28
2023-03-10T13:44:44.671Z,95710.72
2023-03-10T13:49:51.110Z,95712.28
2023-03-10T13:55:06.167Z,95708.00
2023-03-10T14:00:16.106Z,95701.59
2023-03-10T14:05:39.428Z,95704.69
2023-03-10T14:10:42.271Z,95707.50
2023-03-10T14:15:56.011Z,95718.56
2023-03-10T14:21:24.333Z,95713.94
2023-03-10T14:26:27.196Z,95730.13
2023-03-10T14:31:31.361Z,95735.44
2023-03-10T14:36:34.469Z,95725.09
2023-03-10T14:41:37.378Z,95733.38
2023-03-10T14:46:42.619Z,95742.59
2023-03-10T14:51:45.573Z,95762.88
2023-03-10T14:56:52.470Z,95783.31
2023-03-10T15:01:58.253Z,95790.34
2023-03-10T15:07:01.217Z,95785.22
2023-03-10T15:12:04.901Z,95801.38
2023-03-10T15:17:11.438Z,95784.81
2023-03-10T15:22:14.277Z,95792.38
2023-03-10T15:27:17.137Z,95817.66
2023-03-10T15:32:21.656Z,95828.94
2023-03-10T15:37:24.646Z,95829.38
2023-03-10T15:42:27.756Z,95853.75
2023-03-10T15:47:32.565Z,95849.03
2023-03-10T15:52:36.392Z,95850.03
2023-03-10T15:57:41.148Z,95849.78
2023-03-10T16:02:45.887Z,95842.53
2023-03-10T16:07:48.845Z,95846.03
2023-03-10T16:12:52.527Z,95825.72
2023-03-10T16:17:56.632Z,95849.09
2023-03-10T16:22:59.574Z,95875.41
2023-03-10T16:28:03.307Z,95882.72
2023-03-10T16:33:07.622Z,95908.03
2023-03-10T16:38:10.443Z,95900.28
2023-03-10T16:43:14.719Z,95921.44
2023-03-10T16:48:20.463Z,95925.22
2023-03-10T16:53:23.704Z,95925.88
2023-03-10T16:58:27.641Z,95943.75
2023-03-10T17:03:31.927Z,95933.16
2023-03-10T17:08:34.858Z,95955.97
2023-03-10T17:13:38.730Z,95993.00
2023-03-10T17:18:43.119Z,96018.75
2023-03-10T17:23:48.156Z,96006.13
2023-03-10T17:28:52.595Z,96013.81
2023-03-10T17:33:59.187Z,96053.41
2023-03-10T17:39:03.700Z,96074.75
2023-03-10T17:44:06.719Z,96136.78
2023-03-10T17:49:13.163Z,96177.88
2023-03-10T17:54:18.000Z,96188.94
2023-03-10T17:59:21.260Z,96187.50
2023-03-10T18:04:29.604Z,96216.66
2023-03-10T18:09:32.817Z,96261.59
2023-03-10T18:14:35.723Z,96291.03
2023-03-10T18:19:39.799Z,96296.22
2023-03-10T18:24:42.754Z,96303.16
2023-03-10T18:29:46.683Z,96318.84
2023-03-10T18:34:52.260Z,96350.25
2023-03-10T18:39:55.184Z,96389.84
2023-03-10T18:44:58.604Z,96397.88
2023-03-10T18:50:03.673Z,96423.91
2023-03-10T18:55:08.360Z,96451.59
2023-03-10T19:00:15.503Z,96465.06
2023-03-10T19:05:20.029Z,96468.75
2023-03-10T19:10:23.363Z,96483.06
2023-03-10T19:15:26.363Z,96534.44
2023-03-10T19:20:30.804Z,96524.78
2023-03-10T19:25:34.685Z,96530.84
2023-03-10T19:30:37.854Z,96526.31
2023-03-10T19:35:42.079Z,96542.53
2023-03-10T19:40:47.023Z,96591.41
2023-03-10T19:45:50.101Z,96598.69
2023-03-10T19:50:55.826Z,96618.94
2023-03-10T19:56:00.897Z,96657.69
2023-03-10T20:01:03.903Z,96693.09
2023-03-10T20:06:08.635Z,96705.69
2023-03-10T20:11:13.550Z,96732.53
2023-03-10T20:16:18.446Z,96730.97
2023-03-10T20:21:23.635Z,96742.91
2023-03-10T20:26:26.886Z,96770.81
2023-03-10T20:31:33.972Z,96773.44
2023-03-10T20:36:39.963Z,96802.06
2023-03-10T20:41:44.990Z,96839.00
2023-03-10T20:46:48.097Z,96842.34
2023-03-10T20:51:53.818Z,96846.88
2023-03-10T20:56:56.970Z,96880.25
2023-03-10T21:01:59.907Z,96898.19
2023-03-10T21:07:04.203Z,96905.66
2023-03-10T21:12:07.376Z,96928.31
2023-03-10T21:17:10.783Z,96943.22
2023-03-10T21:22:15.680Z,96950.22
2023-03-10T21:27:20.767Z,96958.00
2023-03-10T21:32:25.894Z,96969.31
2023-03-10T21:37:31.189Z,97007.47
2023-03-10T21:42:34.049Z,96994.28
2023-03-10T21:47:37.753Z,97006.66
2023-03-10T21:52:42.353Z,97017.03
2023-03-10T21:57:45.341Z,97024.78
2023-03-10T22:02:48.759Z,97032.66
2023-03-10T22:07:53.398Z,97043.03
2023-03-10T22:12:56.305Z,97070.41
2023-03-10T22:17:59.644Z,97081.53
2023-03-10T22:23:04.968Z,97092.47
2023-03-10T22:28:07.683Z,97103.97
2023-03-10T22:33:10.819Z,97132.09
2023-03-10T22:38:15.226Z,97131.34
2023-03-10T22:43:18.023Z,97133.88
2023-03-10T22:48:21.141Z,97158.31
2023-03-10T22:53:25.316Z,97170.88
2023-03-10T22:58:28.380Z,97180.53
2023-03-10T23:03:31.338Z,97174.44
2023-03-10T23:08:37.372Z,97186.59
2023-03-10T23:13:40.362Z,97191.03
2023-03-10T23:18:43.631Z,97206.09
2023-03-10T23:23:49.238Z,97196.97
2023-03-10T23:28:52.270Z,97217.09
2023-03-10T23:33:55.025Z,97218.16
2023-03-10T23:38:59.256Z,97214.88
2023-03-10T23:44:02.220Z,97220.31
2023-03-10T23:49:05.021Z,97236.97
2023-03-10T23:54:09.414Z,97263.38
2023-03-10T23:59:12.233Z,97258.34
